CST,Max TemperatureF,Mean TemperatureF,Min TemperatureF,Max Dew PointF,MeanDew PointF,Min DewpointF,Max Humidity, Mean Humidity, Min Humidity, Max Sea Level PressureIn, Mean Sea Level PressureIn, Min Sea Level PressureIn, Max VisibilityMiles, Mean VisibilityMiles, Min VisibilityMiles, Max Wind SpeedMPH, Mean Wind SpeedMPH, Max Gust SpeedMPH,PrecipitationIn, CloudCover, Events, WindDirDegrees
2013-2-1,61,48,35,34,31,26,85,57,28,30.45,30.37,30.32,10,10,10,13,4,15,0.00,0,,355
2013-2-2,69,50,30,50,39,27,92,64,35,30.37,30.27,30.18,10,10,10,18,4,26,0.00,2,,219
2013-2-3,69,54,38,46,36,25,92,56,19,30.29,30.21,30.14,10,10,9,17,4,25,0.00,1,,308
2013-2-4,60,50,39,49,40,33,89,63,36,30.14,30.07,29.99,10,10,10,8,1,10,0.01,3,Rain,140
2013-2-5,75,63,50,58,52,48,100,75,49,30.06,30.00,29.96,10,7,0,8,1,13,T,4,Fog,352
2013-2-6,73,62,50,59,54,48,93,71,49,30.17,30.09,30.02,10,7,0,12,3,16,0.09,6,Fog-Rain,148
2013-2-7,70,61,51,58,56,48,93,78,63,30.01,29.93,29.86,10,8,0,14,4,18,1.02,6,Fog-Rain,338
2013-2-8,72,61,50,58,51,43,96,77,57,30.22,30.08,29.97,10,9,1,18,6,25,0.00,5,,357
2013-2-9,67,54,41,52,45,37,89,71,52,30.27,30.19,30.11,10,9,2,13,5,16,0.00,1,,90
2013-2-10,73,64,54,67,62,52,93,83,73,30.10,29.99,29.87,10,7,0,22,10,31,3.90,8,Fog-Rain-Thunderstorm,171
2013-2-11,64,59,54,62,55,52,100,92,84,30.19,30.10,29.99,10,6,2,12,5,18,1.51,8,Rain-Thunderstorm,17
2013-2-12,58,55,52,55,53,50,93,91,89,30.09,29.90,29.78,10,6,1,15,6,21,0.15,8,Rain-Thunderstorm,58
2013-2-13,56,47,37,54,44,35,93,74,54,30.09,29.97,29.83,10,10,3,16,8,22,0.04,5,Rain,301
2013-2-14,61,48,34,41,35,32,96,66,35,30.18,30.11,30.07,10,8,0,9,1,,0.00,1,Fog,64
2013-2-15,67,50,32,41,35,26,92,58,24,30.20,30.14,30.07,10,10,9,15,4,22,0.00,1,,324
2013-2-16,52,42,32,35,23,12,75,48,21,30.32,30.23,30.15,10,10,10,24,9,35,0.00,1,,326
2013-2-17,60,44,27,34,26,20,92,59,25,30.38,30.31,30.24,10,10,10,12,5,15,0.00,0,,177
2013-2-18,67,51,35,56,43,31,92,68,44,30.27,30.14,29.98,10,10,6,25,10,33,0.05,5,Rain,155
2013-2-19,65,55,44,59,45,25,90,56,22,30.25,30.09,29.95,10,9,3,21,9,25,0.35,5,Rain,327
2013-2-20,57,46,34,34,29,23,89,58,27,30.30,30.20,30.11,10,9,4,12,2,17,0.00,0,,40
2013-2-21,70,54,37,66,49,26,87,66,45,30.10,29.93,29.82,10,9,3,22,9,28,0.20,7,Rain-Thunderstorm,149
2013-2-22,71,63,55,67,53,43,90,65,39,30.01,29.95,29.88,10,9,4,16,5,21,0.22,8,Rain-Thunderstorm,5
2013-2-23,61,54,46,54,51,44,93,80,67,29.99,29.93,29.88,10,9,2,10,4,14,0.39,7,Rain-Thunderstorm,14
2013-2-24,72,56,40,52,43,39,100,66,31,30.02,29.95,29.84,10,6,0,13,3,17,0.27,4,Fog-Rain-Thunderstorm,86
2013-2-25,69,63,56,63,59,52,93,85,76,29.82,29.62,29.48,10,8,1,17,9,23,1.59,7,Rain-Thunderstorm,137
2013-2-26,64,53,41,53,37,33,89,65,40,29.93,29.74,29.51,10,10,10,21,9,30,0.00,2,,260
2013-2-27,69,54,39,43,38,35,92,60,28,30.03,29.98,29.93,10,10,10,15,4,31,T,1,,292
2013-2-28,54,45,35,36,32,26,92,65,38,30.13,30.09,30.04,10,10,10,15,5,22,0.00,0,,316